Time;durP1;ratioP1;P1;durP2;ratioP2;P2;SDS_P1;SDS_P2;PMS_P1;PMS_P2;Temp;Humidity;BMP_temperature;BMP_pressure;BME280_temperature;BME280_humidity;BME280_pressure;Samples;Min_cycle;Max_cycle;Signal;HPM_P1;HPM_P2
2022/08/29 06:09:18;;;;;;;23.07;16.40;;;28.70;99.90;;;;;;6151034;23;20194;-93
2022/08/29 06:51:45;;;;;;;16.83;13.55;;;28.70;99.90;;;;;;6176268;23;20083;-92
2022/08/29 06:54:20;;;;;;;14.23;12.77;;;29.80;99.90;;;;;;6145660;23;20431;-92
2022/08/29 07:00:45;;;;;;;;;;;;;;;;;;;;;
2022/08/29 07:03:18;;;;;;;14.10;12.77;;;31.50;99.90;;;;;;6096999;23;20045;-91
2022/08/29 07:05:52;;;;;;;17.17;13.77;;;31.40;99.90;;;;;;6072416;23;20093;-93
2022/08/29 07:08:19;;;;;;;17.05;15.45;;;31.80;99.90;;;;;;6048444;23;20010;-91
2022/08/29 07:10:49;;;;;;;15.75;14.55;;;32.40;99.90;;;;;;6072442;23;20006;-92
2022/08/29 07:13:23;;;;;;;16.85;15.60;;;32.90;99.90;;;;;;6072757;23;20042;-94
2022/08/29 07:16:43;;;;;;;16.85;15.45;;;32.80;99.90;;;;;;6078634;23;20030;-93
2022/08/29 07:19:35;;;;;;;16.08;14.95;;;32.70;99.90;;;;;;6075151;23;20010;-94
2022/08/29 07:22:26;;;;;;;17.00;15.55;;;32.20;99.90;;;;;;6073058;23;20019;-92
2022/08/29 07:24:54;;;;;;;17.70;16.08;;;32.20;99.90;;;;;;6051558;23;20441;-92
2022/08/29 07:27:24;;;;;;;16.70;15.30;;;32.20;99.90;;;;;;6072687;23;20094;-93
2022/08/29 07:30:04;;;;;;;17.02;15.68;;;32.90;99.90;;;;;;6067615;23;20015;-93
2022/08/29 07:33:23;;;;;;;;;;;;;;;;;;;;;
2022/08/29 07:35:53;;;;;;;16.88;15.40;;;33.20;99.90;;;;;;6097780;23;20070;-92
2022/08/29 07:38:34;;;;;;;17.08;15.25;;;32.90;99.90;;;;;;6110130;23;20068;-92
2022/08/29 07:41:48;;;;;;;17.10;15.70;;;32.30;99.90;;;;;;6109797;23;20005;-92
2022/08/29 07:44:47;;;;;;;17.10;15.60;;;31.70;99.90;;;;;;5984591;23;20559;-93
2022/08/29 07:47:51;;;;;;;16.45;15.32;;;32.30;99.90;;;;;;5965383;23;20020;-92
2022/08/29 07:51:21;;;;;;;17.20;15.70;;;32.40;99.90;;;;;;5935771;24;20061;-92
2022/08/29 07:54:50;;;;;;;18.25;16.60;;;32.90;99.90;;;;;;5938692;24;20032;-92
2022/08/29 07:57:41;;;;;;;;;;;33.30;99.90;;;;;;5938439;24;20021;-92
2022/08/29 08:00:09;;;;;;;17.13;15.73;;;33.00;99.90;;;;;;5934624;24;19906;-91
2022/08/29 08:02:38;;;;;;;17.60;15.88;;;32.20;99.90;;;;;;5930768;24;20019;-93
2022/08/29 08:05:06;;;;;;;17.48;15.98;;;31.50;99.90;;;;;;5909419;24;20049;-90
2022/08/29 08:07:33;;;;;;;17.48;15.90;;;31.90;99.90;;;;;;5908294;24;20395;-93
2022/08/29 08:10:01;;;;;;;16.67;15.52;;;32.20;99.90;;;;;;5932603;24;20028;-94
2022/08/29 08:12:28;;;;;;;17.80;16.13;;;32.30;99.90;;;;;;5911635;24;20059;-94
2022/08/29 08:14:55;;;;;;;17.17;15.80;;;32.70;99.90;;;;;;5933105;24;20012;-93
2022/08/29 08:17:22;;;;;;;18.23;16.30;;;33.60;99.90;;;;;;5909853;24;20083;-95
2022/08/29 08:19:49;;;;;;;17.40;16.20;;;33.80;99.90;;;;;;5932417;24;20016;-92
2022/08/29 08:22:15;;;;;;;16.63;15.38;;;33.40;99.90;;;;;;6017858;23;20018;-92
2022/08/29 08:24:41;;;;;;;17.00;15.68;;;33.10;99.90;;;;;;6021325;23;20135;-91
2022/08/29 08:27:08;;;;;;;17.52;16.02;;;33.20;99.90;;;;;;6050287;23;20041;-94
2022/08/29 08:29:34;;;;;;;17.23;15.88;;;33.30;99.90;;;;;;6080110;23;20058;-93
2022/08/29 08:32:00;;;;;;;17.90;16.33;;;33.00;99.90;;;;;;6079289;23;20006;-92
2022/08/29 08:34:28;;;;;;;17.50;15.93;;;33.10;99.90;;;;;;6079488;23;20060;-93
2022/08/29 08:36:54;;;;;;;18.20;16.08;;;33.30;99.90;;;;;;6079511;23;20002;-91
2022/08/29 08:39:20;;;;;;;17.08;15.88;;;33.60;99.90;;;;;;6079392;23;20009;-92
2022/08/29 08:42:03;;;;;;;17.70;16.20;;;33.80;99.90;;;;;;6079498;23;20081;-94
2022/08/29 08:45:14;;;;;;;18.15;16.15;;;33.90;99.90;;;;;;6079519;23;20010;-94
2022/08/29 08:47:52;;;;;;;17.60;16.20;;;34.10;99.90;;;;;;6097620;23;20026;-93
2022/08/29 08:50:49;;;;;;;17.35;15.95;;;33.90;99.90;;;;;;6079236;23;20012;-94
2022/08/29 08:53:42;;;;;;;17.20;15.98;;;33.60;99.90;;;;;;6079366;23;20006;-93
2022/08/29 08:56:13;;;;;;;22.85;16.75;;;33.20;99.90;;;;;;6098238;23;20018;-93
2022/08/29 08:58:54;;;;;;;17.70;16.27;;;33.30;99.90;;;;;;6108884;23;20144;-93
2022/08/29 09:01:27;;;;;;;18.25;16.70;;;33.30;99.90;;;;;;6108337;23;20023;-91
2022/08/29 09:04:35;;;;;;;17.80;16.47;;;32.70;99.90;;;;;;6107973;23;20017;-91
2022/08/29 09:07:13;;;;;;;17.48;15.82;;;31.60;99.90;;;;;;6107884;23;20017;-93
2022/08/29 09:09:52;;;;;;;16.48;14.85;;;30.90;99.90;;;;;;6108199;23;20013;-94
2022/08/29 09:12:56;;;;;;;17.27;15.57;;;30.70;99.90;;;;;;6107815;23;20012;-92
2022/08/29 09:15:33;;;;;;;16.75;15.25;;;30.40;99.90;;;;;;6108016;23;20033;-93
2022/08/29 09:18:14;;;;;;;17.10;15.77;;;30.90;99.90;;;;;;6108175;23;20344;-91
2022/08/29 09:20:42;;;;;;;16.35;15.15;;;31.50;99.90;;;;;;6108037;23;20009;-92
2022/08/29 09:23:34;;;;;;;17.85;16.05;;;32.30;99.90;;;;;;6107729;23;20006;-92
2022/08/29 09:26:01;;;;;;;18.75;16.15;;;32.80;99.90;;;;;;6092073;23;20005;-92
2022/08/29 09:28:27;;;;;;;17.33;15.45;;;32.80;99.90;;;;;;6107778;23;20037;-91
2022/08/29 09:31:18;;;;;;;17.30;15.60;;;32.40;99.90;;;;;;6108141;23;20085;-90
2022/08/29 09:33:54;;;;;;;16.85;15.18;;;32.50;99.90;;;;;;6107991;23;20096;-91
2022/08/29 09:36:41;;;;;;;16.50;15.00;;;32.50;99.90;;;;;;6107764;23;20017;-91
2022/08/29 09:39:27;;;;;;;17.33;15.93;;;32.10;99.90;;;;;;6107833;23;20013;-91
2022/08/29 09:42:18;;;;;;;16.42;14.98;;;31.20;99.90;;;;;;6107710;23;20059;-91
2022/08/29 09:45:14;;;;;;;16.63;14.90;;;30.60;99.90;;;;;;6108272;23;20024;-90
2022/08/29 09:47:40;;;;;;;16.17;14.68;;;30.10;99.90;;;;;;6107776;23;20447;-91
2022/08/29 09:50:23;;;;;;;15.40;14.13;;;30.00;99.90;;;;;;6107992;23;20006;-91
2022/08/29 09:52:59;;;;;;;16.15;14.43;;;30.10;99.90;;;;;;6107763;23;20447;-91
2022/08/29 09:55:44;;;;;;;15.52;14.30;;;29.80;99.90;;;;;;6107579;23;20013;-90
2022/08/29 09:58:20;;;;;;;16.33;14.70;;;29.60;99.90;;;;;;6107717;23;20008;-92
2022/08/29 10:01:08;;;;;;;19.17;13.27;;;29.20;99.90;;;;;;6114382;23;20013;-91
2022/08/29 10:04:03;;;;;;;15.63;14.23;;;28.80;99.90;;;;;;6110511;23;20009;-92
2022/08/29 10:06:39;;;;;;;13.70;12.60;;;28.60;99.90;;;;;;6103046;23;20016;-94
2022/08/29 10:09:09;;;;;;;15.13;13.55;;;27.80;99.90;;;;;;6107564;23;20009;-92
2022/08/29 10:11:52;;;;;;;14.90;13.55;;;27.40;99.90;;;;;;6107860;23;20431;-92
2022/08/29 10:14:52;;;;;;;15.88;14.57;;;27.10;99.90;;;;;;6106985;23;20009;-91
2022/08/29 10:23:39;;;;;;;5.80;2.67;;;21.50;99.90;;;;;;6189114;22;20382;-92
2022/08/29 10:26:21;;;;;;;5.10;2.45;;;20.70;99.90;;;;;;6119906;23;20466;-92
2022/08/29 10:29:03;;;;;;;6.40;3.58;;;20.50;99.90;;;;;;6112892;23;20005;-92
2022/08/29 10:31:38;;;;;;;11.98;5.70;;;20.70;99.90;;;;;;6111423;23;20041;-92
2022/08/29 10:34:27;;;;;;;21.67;10.57;;;21.10;99.90;;;;;;6110923;23;20010;-92
2022/08/29 10:37:05;;;;;;;25.02;12.68;;;22.00;99.90;;;;;;6109265;23;20071;-92
2022/08/29 10:39:59;;;;;;;18.20;7.07;;;22.80;99.90;;;;;;6107651;23;20010;-91
2022/08/29 10:45:17;;;;;;;16.80;7.40;;;22.50;99.90;;;;;;5105441;27;1753962;-94
